Time;durP1;ratioP1;P1;durP2;ratioP2;P2;SDS_P1;SDS_P2;PMS_P1;PMS_P2;Temp;Humidity;BMP_temperature;BMP_pressure;BME280_temperature;BME280_humidity;BME280_pressure;Samples;Min_cycle;Max_cycle;Signal;HPM_P1;HPM_P2
2021/10/16 00:01:20;;;;;;;7.07;2.72;;;16.60;58.30;;;;;;5020558;28;20010;-71
2021/10/16 00:03:46;;;;;;;6.10;1.90;;;16.70;58.40;;;;;;5024566;28;20332;-72
2021/10/16 00:06:13;;;;;;;7.70;1.48;;;16.70;58.20;;;;;;5030140;28;20025;-72
2021/10/16 00:08:40;;;;;;;7.43;1.92;;;16.70;57.90;;;;;;5022732;28;20036;-74
2021/10/16 00:11:07;;;;;;;3.03;0.95;;;16.70;58.00;;;;;;5023843;28;20048;-72
2021/10/16 00:13:33;;;;;;;5.57;1.15;;;16.60;58.10;;;;;;5020852;28;20383;-73
2021/10/16 00:16:00;;;;;;;3.47;1.30;;;16.60;58.70;;;;;;5025809;28;20025;-75
2021/10/16 00:18:26;;;;;;;3.00;1.13;;;16.50;59.10;;;;;;5025677;28;20025;-75
2021/10/16 00:20:55;;;;;;;4.57;1.55;;;16.50;59.60;;;;;;5023332;28;20531;-74
2021/10/16 00:23:22;;;;;;;4.15;1.65;;;16.40;60.00;;;;;;5024547;28;20018;-72
2021/10/16 00:25:49;;;;;;;5.28;1.30;;;16.30;59.80;;;;;;5019129;28;20029;-71
2021/10/16 00:28:15;;;;;;;5.05;1.17;;;16.20;60.60;;;;;;5027373;28;20018;-73
2021/10/16 00:30:42;;;;;;;8.65;1.38;;;16.20;61.00;;;;;;5021422;28;20021;-73
2021/10/16 00:33:09;;;;;;;3.22;0.93;;;16.10;61.10;;;;;;5019169;28;20046;-73
2021/10/16 00:35:35;;;;;;;6.32;1.20;;;16.10;61.10;;;;;;5022897;28;20049;-72
2021/10/16 00:38:02;;;;;;;6.32;1.85;;;16.00;61.10;;;;;;5021597;28;20431;-71
2021/10/16 00:40:28;;;;;;;4.85;2.10;;;16.10;60.80;;;;;;5010568;28;20059;-72
2021/10/16 00:42:55;;;;;;;12.98;3.25;;;16.10;60.60;;;;;;5024637;28;20485;-72
2021/10/16 00:45:23;;;;;;;7.63;2.08;;;16.10;60.30;;;;;;5021281;28;20034;-71
2021/10/16 00:47:51;;;;;;;4.47;1.40;;;16.10;59.70;;;;;;5016648;28;20018;-74
2021/10/16 00:50:22;;;;;;;6.97;1.40;;;16.10;59.50;;;;;;5024236;28;20108;-71
2021/10/16 00:52:50;;;;;;;8.82;2.53;;;16.10;58.50;;;;;;5027075;28;20018;-73
2021/10/16 00:55:22;;;;;;;5.88;1.55;;;16.10;58.40;;;;;;5022530;28;20485;-72
2021/10/16 00:57:49;;;;;;;2.08;1.13;;;16.10;58.70;;;;;;5026528;28;20032;-72
2021/10/16 01:00:15;;;;;;;5.80;1.75;;;16.10;58.80;;;;;;5020976;28;20041;-74
2021/10/16 01:02:42;;;;;;;5.97;1.50;;;16.20;58.90;;;;;;5030592;28;20376;-71
2021/10/16 01:05:10;;;;;;;6.07;1.15;;;16.20;58.90;;;;;;5024985;28;20099;-74
2021/10/16 01:07:38;;;;;;;6.05;1.50;;;16.20;59.20;;;;;;5029386;28;20037;-73
2021/10/16 01:10:08;;;;;;;4.55;1.80;;;16.20;59.80;;;;;;5024045;28;20035;-73
2021/10/16 01:12:37;;;;;;;5.55;1.50;;;16.20;60.20;;;;;;5028948;28;20100;-73
2021/10/16 01:15:09;;;;;;;14.23;2.30;;;16.20;59.80;;;;;;5031255;28;20915;-73
2021/10/16 01:17:37;;;;;;;5.75;2.10;;;16.20;59.80;;;;;;5027007;28;20071;-74
2021/10/16 01:20:11;;;;;;;6.53;1.58;;;16.20;60.00;;;;;;5024317;28;20022;-74
2021/10/16 01:22:39;;;;;;;4.47;1.42;;;16.10;60.30;;;;;;5023004;28;20447;-72
2021/10/16 01:25:14;;;;;;;3.55;1.35;;;16.10;59.40;;;;;;5025256;28;20042;-72
2021/10/16 01:27:41;;;;;;;4.35;1.40;;;16.00;60.60;;;;;;5026621;28;20504;-71
2021/10/16 01:30:09;;;;;;;6.28;1.25;;;15.90;63.60;;;;;;5022503;28;20108;-74
2021/10/16 01:32:37;;;;;;;5.05;1.10;;;15.80;63.80;;;;;;5027922;28;20029;-71
2021/10/16 01:35:07;;;;;;;3.97;1.00;;;15.80;63.40;;;;;;5024861;28;20059;-71
2021/10/16 01:37:35;;;;;;;9.40;2.05;;;15.80;62.90;;;;;;5025525;28;20029;-71
2021/10/16 01:40:01;;;;;;;3.70;0.88;;;15.80;63.20;;;;;;5027969;28;20064;-70
2021/10/16 01:42:28;;;;;;;5.50;2.13;;;15.80;64.70;;;;;;5016585;28;20022;-71
2021/10/16 01:44:54;;;;;;;2.67;1.25;;;15.80;63.00;;;;;;5024440;28;20124;-71
2021/10/16 01:47:21;;;;;;;9.07;1.50;;;15.80;63.20;;;;;;5019714;28;20006;-72
2021/10/16 01:49:47;;;;;;;7.35;2.45;;;15.90;63.40;;;;;;5028070;28;20025;-71
2021/10/16 01:52:14;;;;;;;6.22;1.60;;;15.90;63.80;;;;;;5030384;28;20025;-71
2021/10/16 01:54:44;;;;;;;7.75;2.13;;;15.90;64.00;;;;;;5029577;28;20420;-71
2021/10/16 01:57:10;;;;;;;10.60;3.15;;;15.80;63.90;;;;;;5022686;28;20021;-71
2021/10/16 01:59:37;;;;;;;4.15;1.42;;;15.80;63.70;;;;;;5026940;28;20083;-71
2021/10/16 02:02:04;;;;;;;7.40;1.40;;;15.80;62.80;;;;;;5027458;28;20424;-72
2021/10/16 02:04:30;;;;;;;7.03;1.73;;;15.80;62.00;;;;;;5022107;28;20033;-71
2021/10/16 02:06:57;;;;;;;4.22;1.42;;;15.80;61.40;;;;;;5029575;28;20029;-71
2021/10/16 02:09:23;;;;;;;7.10;1.73;;;15.70;61.20;;;;;;5026694;28;20160;-72
2021/10/16 02:11:50;;;;;;;4.97;1.10;;;15.70;61.00;;;;;;5029217;28;20032;-74
2021/10/16 02:14:16;;;;;;;4.55;1.25;;;15.70;60.90;;;;;;5022454;28;20014;-72
2021/10/16 02:16:43;;;;;;;2.58;0.90;;;15.70;59.40;;;;;;5026051;28;20029;-71
2021/10/16 02:19:09;;;;;;;4.30;1.17;;;15.70;58.20;;;;;;5011997;28;20102;-71
2021/10/16 02:21:36;;;;;;;6.63;1.27;;;15.60;57.50;;;;;;5027949;28;20017;-72
2021/10/16 02:24:02;;;;;;;5.47;1.88;;;15.50;57.30;;;;;;5028555;28;20109;-72
2021/10/16 02:26:29;;;;;;;4.88;0.90;;;15.50;56.80;;;;;;5025900;28;20412;-72
2021/10/16 02:28:55;;;;;;;4.78;2.05;;;15.50;56.90;;;;;;5024964;28;20036;-71
2021/10/16 02:31:22;;;;;;;3.05;1.33;;;15.40;57.10;;;;;;5027227;28;20024;-71
2021/10/16 02:33:49;;;;;;;9.10;1.55;;;15.40;57.20;;;;;;5009569;28;20045;-72
2021/10/16 02:36:16;;;;;;;9.38;1.23;;;15.40;57.80;;;;;;5025616;28;20025;-71
2021/10/16 02:38:43;;;;;;;3.92;1.17;;;15.40;58.30;;;;;;5028550;28;20017;-71
2021/10/16 02:41:09;;;;;;;6.63;2.28;;;15.50;57.70;;;;;;5021955;28;20021;-71
2021/10/16 02:43:36;;;;;;;5.45;1.23;;;15.50;57.50;;;;;;5023689;28;20024;-73
2021/10/16 02:46:02;;;;;;;3.45;1.13;;;15.40;57.10;;;;;;5022720;28;20037;-74
2021/10/16 02:48:29;;;;;;;7.75;1.40;;;15.40;57.50;;;;;;5026006;28;20481;-71
2021/10/16 02:50:55;;;;;;;4.72;2.13;;;15.40;57.60;;;;;;5024308;28;20381;-72
2021/10/16 02:53:22;;;;;;;2.70;0.80;;;15.40;56.80;;;;;;5009715;28;20060;-72
2021/10/16 02:55:48;;;;;;;4.63;1.50;;;15.40;56.50;;;;;;5025762;28;20056;-74
2021/10/16 02:58:15;;;;;;;2.13;1.15;;;15.40;56.50;;;;;;5025256;28;20060;-73
2021/10/16 03:00:41;;;;;;;4.30;1.10;;;15.40;56.00;;;;;;5024310;28;20072;-72
2021/10/16 03:03:08;;;;;;;5.45;1.13;;;15.40;55.90;;;;;;5030320;28;20022;-72
2021/10/16 03:05:34;;;;;;;3.28;1.05;;;15.40;55.90;;;;;;5020832;28;20030;-71
2021/10/16 03:08:01;;;;;;;2.60;0.98;;;15.40;55.90;;;;;;5027851;28;20022;-72
2021/10/16 03:10:27;;;;;;;5.70;2.00;;;15.40;56.80;;;;;;5021590;28;20037;-75
2021/10/16 03:12:53;;;;;;;3.55;1.40;;;15.40;57.30;;;;;;5024260;28;20076;-72
2021/10/16 03:15:20;;;;;;;3.75;1.80;;;15.50;57.90;;;;;;5026200;28;20033;-71
2021/10/16 03:17:46;;;;;;;5.53;1.80;;;15.50;57.80;;;;;;5022807;28;20030;-72
2021/10/16 03:20:13;;;;;;;3.22;1.50;;;15.50;58.20;;;;;;5024742;28;20025;-71
2021/10/16 03:22:39;;;;;;;6.07;1.30;;;15.50;57.50;;;;;;5022210;28;20014;-72
2021/10/16 03:25:06;;;;;;;6.88;1.33;;;15.60;57.00;;;;;;5028134;28;20080;-71
2021/10/16 03:27:33;;;;;;;3.95;0.80;;;15.50;56.10;;;;;;5028163;28;20029;-71
2021/10/16 03:29:59;;;;;;;11.60;7.07;;;15.50;55.90;;;;;;5023164;28;20049;-72
2021/10/16 03:32:26;;;;;;;6.38;1.63;;;15.50;56.60;;;;;;5026470;28;20420;-72
2021/10/16 03:34:52;;;;;;;7.30;1.33;;;15.50;54.90;;;;;;5026369;28;20026;-73
2021/10/16 03:37:19;;;;;;;4.95;1.30;;;15.50;54.70;;;;;;5015679;28;20076;-72
2021/10/16 03:39:45;;;;;;;10.77;1.60;;;15.50;52.80;;;;;;5022922;28;20029;-73
2021/10/16 03:42:12;;;;;;;4.82;1.45;;;15.50;54.00;;;;;;5022238;28;20033;-72
2021/10/16 03:44:38;;;;;;;7.03;1.35;;;15.50;54.90;;;;;;5021216;28;20101;-71
2021/10/16 03:47:04;;;;;;;4.13;1.05;;;15.50;55.40;;;;;;5023745;28;20037;-72
2021/10/16 03:49:31;;;;;;;4.03;0.82;;;15.50;54.90;;;;;;5019264;28;20036;-71
2021/10/16 03:51:57;;;;;;;8.07;2.03;;;15.40;55.20;;;;;;5025649;28;20095;-71
2021/10/16 03:54:24;;;;;;;6.18;2.28;;;15.50;55.70;;;;;;5023606;28;20073;-72
2021/10/16 03:56:50;;;;;;;5.60;2.13;;;15.50;56.10;;;;;;5023639;28;20018;-69
2021/10/16 03:59:21;;;;;;;5.63;1.48;;;15.50;56.50;;;;;;5025547;28;20108;-74
2021/10/16 04:01:48;;;;;;;11.05;3.13;;;15.50;56.80;;;;;;5027855;28;20014;-72
2021/10/16 04:04:14;;;;;;;11.68;4.75;;;15.50;56.70;;;;;;5028391;28;20029;-75
2021/10/16 04:06:40;;;;;;;3.65;1.40;;;15.50;56.80;;;;;;5020085;28;20030;-73
2021/10/16 04:09:07;;;;;;;2.17;1.35;;;15.50;57.00;;;;;;5022941;28;20029;-73
2021/10/16 04:11:33;;;;;;;2.20;0.95;;;15.50;56.70;;;;;;5022755;28;20075;-74
2021/10/16 04:14:00;;;;;;;6.38;1.33;;;15.50;57.30;;;;;;5022116;28;20026;-71
2021/10/16 04:16:27;;;;;;;8.30;1.17;;;15.50;57.80;;;;;;5027823;28;20607;-74
2021/10/16 04:18:53;;;;;;;4.00;2.28;;;15.50;60.00;;;;;;5025151;28;20079;-70
2021/10/16 04:21:19;;;;;;;9.18;1.67;;;15.40;65.20;;;;;;5027989;28;20468;-69
2021/10/16 04:23:46;;;;;;;8.43;2.22;;;15.30;67.00;;;;;;5024369;28;20022;-69
2021/10/16 04:26:12;;;;;;;3.75;1.10;;;15.30;68.30;;;;;;5022766;28;20491;-69
2021/10/16 04:28:39;;;;;;;8.52;2.42;;;15.30;69.60;;;;;;5023354;28;20128;-69
2021/10/16 04:31:05;;;;;;;7.45;1.95;;;15.20;69.10;;;;;;5026215;28;20020;-71
2021/10/16 04:33:32;;;;;;;6.68;1.50;;;15.20;70.80;;;;;;5018989;28;20073;-71
2021/10/16 04:36:00;;;;;;;31.90;20.90;;;15.10;70.90;;;;;;5022952;28;20024;-68
2021/10/16 04:38:27;;;;;;;11.27;3.33;;;15.00;72.80;;;;;;5022279;28;20047;-75
2021/10/16 04:40:53;;;;;;;7.60;1.98;;;15.00;72.80;;;;;;5019426;28;20014;-71
2021/10/16 04:43:20;;;;;;;8.73;2.65;;;15.00;74.30;;;;;;5021659;28;20030;-71
2021/10/16 04:45:46;;;;;;;5.95;1.63;;;15.00;74.90;;;;;;5022654;28;20025;-73
2021/10/16 04:48:13;;;;;;;7.28;1.48;;;14.90;74.50;;;;;;5025300;28;20022;-71
2021/10/16 04:50:40;;;;;;;21.25;3.88;;;14.90;75.30;;;;;;5022987;28;20026;-72
2021/10/16 04:53:06;;;;;;;8.63;2.30;;;15.00;74.90;;;;;;5029026;28;20060;-76
2021/10/16 04:55:33;;;;;;;11.48;2.78;;;15.00;73.00;;;;;;5019058;28;20037;-77
2021/10/16 04:57:59;;;;;;;5.43;1.52;;;15.00;72.30;;;;;;5015062;28;20071;-72
2021/10/16 05:00:26;;;;;;;9.48;2.17;;;15.10;70.70;;;;;;5015787;28;20026;-71
2021/10/16 05:02:53;;;;;;;4.95;1.70;;;15.10;69.90;;;;;;5016831;28;20377;-70
2021/10/16 05:05:19;;;;;;;7.85;2.17;;;15.10;68.10;;;;;;5018591;28;20026;-71
2021/10/16 05:07:46;;;;;;;6.25;2.08;;;15.00;68.40;;;;;;5013995;28;20535;-73
2021/10/16 05:10:12;;;;;;;4.57;2.15;;;15.00;68.50;;;;;;5016932;28;20104;-71
2021/10/16 05:12:39;;;;;;;9.07;1.23;;;15.10;68.70;;;;;;5015564;28;20414;-72
2021/10/16 05:15:06;;;;;;;4.65;1.80;;;15.10;69.10;;;;;;5013498;28;20642;-72
2021/10/16 05:17:32;;;;;;;5.32;2.22;;;15.20;69.60;;;;;;5017858;28;20029;-73
2021/10/16 05:19:59;;;;;;;12.77;3.70;;;15.20;69.20;;;;;;5004308;28;20034;-71
2021/10/16 05:22:26;;;;;;;6.10;2.00;;;15.30;66.90;;;;;;5016502;28;20068;-71
2021/10/16 05:24:52;;;;;;;11.85;2.60;;;15.30;67.70;;;;;;5022683;28;20076;-69
2021/10/16 05:27:18;;;;;;;5.47;1.60;;;15.30;68.80;;;;;;5028871;28;20022;-70
2021/10/16 05:29:45;;;;;;;12.75;2.45;;;15.30;68.70;;;;;;5021139;28;20482;-68
2021/10/16 05:32:11;;;;;;;14.73;3.30;;;15.30;68.60;;;;;;5016726;28;20393;-70
2021/10/16 05:34:38;;;;;;;14.48;3.58;;;15.40;65.60;;;;;;5024801;28;20417;-69
2021/10/16 05:37:05;;;;;;;5.53;2.28;;;15.30;64.80;;;;;;5019181;28;21090;-74
2021/10/16 05:39:31;;;;;;;13.45;2.00;;;15.40;63.10;;;;;;5026457;28;20076;-72
2021/10/16 05:41:57;;;;;;;5.75;2.20;;;15.40;62.20;;;;;;5019711;28;20032;-71
2021/10/16 05:44:25;;;;;;;7.97;1.85;;;15.40;61.70;;;;;;5019585;28;20046;-70
2021/10/16 05:46:51;;;;;;;8.20;2.00;;;15.40;61.10;;;;;;5023635;28;20021;-70
2021/10/16 05:49:18;;;;;;;9.05;1.52;;;15.40;61.20;;;;;;5026755;28;20037;-70
2021/10/16 05:51:44;;;;;;;4.82;1.70;;;15.50;60.60;;;;;;5026989;28;20025;-69
2021/10/16 05:54:11;;;;;;;5.85;1.63;;;15.50;60.40;;;;;;5025832;28;20013;-69
2021/10/16 05:56:37;;;;;;;8.88;2.38;;;15.50;58.90;;;;;;5023925;28;20040;-72
2021/10/16 05:59:04;;;;;;;10.45;2.05;;;15.60;59.90;;;;;;5027010;28;20108;-71
2021/10/16 06:01:30;;;;;;;7.05;1.48;;;15.60;60.20;;;;;;5030008;28;20445;-70
2021/10/16 06:03:57;;;;;;;9.32;1.52;;;15.70;58.10;;;;;;5019678;28;20476;-71
2021/10/16 06:06:23;;;;;;;8.55;1.70;;;15.70;58.90;;;;;;5023473;28;20104;-70
2021/10/16 06:08:50;;;;;;;7.38;1.83;;;15.80;59.10;;;;;;5025627;28;20018;-72
2021/10/16 06:11:16;;;;;;;5.60;1.83;;;15.90;58.70;;;;;;5025375;28;20500;-74
2021/10/16 06:13:43;;;;;;;8.55;1.60;;;15.90;59.80;;;;;;5025506;28;20018;-72
2021/10/16 06:16:10;;;;;;;6.10;2.35;;;15.90;59.10;;;;;;5023739;28;20037;-74
2021/10/16 06:18:36;;;;;;;4.88;1.80;;;16.00;58.20;;;;;;5025328;28;20025;-71
2021/10/16 06:21:03;;;;;;;7.78;2.47;;;16.00;57.50;;;;;;5026734;28;20030;-73
2021/10/16 06:23:32;;;;;;;4.88;1.02;;;16.00;57.40;;;;;;5021442;28;20069;-77
2021/10/16 06:25:59;;;;;;;7.03;1.48;;;16.10;57.50;;;;;;5022916;28;20065;-72
2021/10/16 06:28:25;;;;;;;3.90;1.73;;;16.20;56.10;;;;;;5023462;28;20108;-74
2021/10/16 06:30:52;;;;;;;3.42;1.40;;;16.30;57.40;;;;;;5029401;28;20060;-73
2021/10/16 06:33:19;;;;;;;4.38;1.65;;;16.40;56.00;;;;;;5024580;28;20431;-73
2021/10/16 06:35:46;;;;;;;4.20;2.40;;;16.40;54.20;;;;;;5023429;28;20033;-74
2021/10/16 06:38:12;;;;;;;6.78;2.10;;;16.50;54.60;;;;;;5020859;28;20384;-72
2021/10/16 06:40:39;;;;;;;11.50;2.17;;;16.60;55.40;;;;;;5022015;28;20113;-71
2021/10/16 06:43:05;;;;;;;3.88;1.20;;;16.60;56.80;;;;;;5027039;28;20100;-73
2021/10/16 06:45:32;;;;;;;8.05;1.92;;;16.70;57.00;;;;;;5024610;28;20496;-74
2021/10/16 06:47:58;;;;;;;9.68;1.75;;;16.70;58.50;;;;;;5025023;28;20029;-72
2021/10/16 06:50:25;;;;;;;6.60;1.88;;;16.70;60.50;;;;;;5027121;28;20025;-73
2021/10/16 06:52:51;;;;;;;8.93;2.60;;;16.60;61.90;;;;;;5027980;28;20109;-75
2021/10/16 06:55:18;;;;;;;4.28;1.95;;;16.40;65.90;;;;;;5020876;28;20542;-76
2021/10/16 06:57:45;;;;;;;7.72;2.42;;;16.30;67.10;;;;;;5022912;28;20029;-72
2021/10/16 07:00:12;;;;;;;8.00;2.30;;;16.20;68.70;;;;;;5022374;28;20018;-79
2021/10/16 07:02:39;;;;;;;8.32;2.08;;;16.20;69.10;;;;;;5019428;28;20101;-78
2021/10/16 07:05:05;;;;;;;6.85;1.90;;;16.10;67.90;;;;;;5020848;28;20034;-72
2021/10/16 07:07:32;;;;;;;11.80;2.47;;;16.10;70.00;;;;;;5020627;28;20025;-73
2021/10/16 07:09:58;;;;;;;8.88;2.60;;;16.20;69.80;;;;;;5025054;28;20376;-72
2021/10/16 07:12:27;;;;;;;11.88;2.15;;;16.30;69.80;;;;;;5024805;28;20411;-72
2021/10/16 07:14:53;;;;;;;8.38;2.65;;;16.40;69.00;;;;;;5025698;28;20037;-72
2021/10/16 07:17:20;;;;;;;12.57;2.60;;;16.60;68.30;;;;;;5017571;28;20030;-72
2021/10/16 07:19:50;;;;;;;10.25;2.38;;;16.60;63.80;;;;;;5025245;28;20021;-73
2021/10/16 07:22:18;;;;;;;11.02;2.70;;;16.70;61.60;;;;;;5024303;28;20122;-71
2021/10/16 07:24:44;;;;;;;7.07;2.88;;;16.80;61.00;;;;;;5010082;28;20034;-74
2021/10/16 07:27:11;;;;;;;7.47;1.80;;;16.90;61.60;;;;;;5023317;28;20029;-73
2021/10/16 07:29:38;;;;;;;8.20;3.40;;;16.90;60.40;;;;;;5025767;28;20025;-70
2021/10/16 07:32:05;;;;;;;8.57;3.17;;;17.00;60.60;;;;;;5026957;28;20049;-72
2021/10/16 07:34:31;;;;;;;11.60;3.47;;;17.00;58.90;;;;;;5023206;28;20042;-74
2021/10/16 07:36:58;;;;;;;9.02;3.25;;;17.10;58.80;;;;;;5022846;28;20519;-72
2021/10/16 07:39:24;;;;;;;7.40;3.30;;;17.10;59.70;;;;;;5020546;28;20436;-72
2021/10/16 07:41:51;;;;;;;10.20;2.88;;;17.20;60.20;;;;;;5023399;28;20028;-73
2021/10/16 07:44:18;;;;;;;9.38;3.08;;;17.30;59.20;;;;;;5022776;28;20044;-74
2021/10/16 07:46:45;;;;;;;9.18;3.13;;;17.30;59.20;;;;;;5020926;28;20013;-71
2021/10/16 07:49:12;;;;;;;7.57;2.60;;;17.30;58.90;;;;;;5023487;28;20044;-74
2021/10/16 07:51:39;;;;;;;8.15;3.20;;;17.30;59.70;;;;;;5024985;28;20025;-74
2021/10/16 07:54:05;;;;;;;7.97;3.85;;;17.30;59.70;;;;;;5022359;28;20033;-73
2021/10/16 07:56:32;;;;;;;10.52;3.45;;;17.30;59.00;;;;;;5022064;28;20025;-79
2021/10/16 07:58:59;;;;;;;7.90;2.58;;;17.40;59.60;;;;;;5021550;28;20510;-72
2021/10/16 08:01:25;;;;;;;8.73;2.53;;;17.50;59.50;;;;;;5020944;28;20036;-77
2021/10/16 08:03:52;;;;;;;12.55;2.92;;;17.60;59.40;;;;;;5019105;28;20028;-78
2021/10/16 08:06:20;;;;;;;13.07;3.28;;;17.70;60.20;;;;;;5024325;28;20017;-79
2021/10/16 08:08:46;;;;;;;12.00;2.88;;;17.70;62.40;;;;;;5019626;28;20029;-74
2021/10/16 08:11:13;;;;;;;12.65;3.85;;;17.70;63.20;;;;;;5024127;28;20126;-73
2021/10/16 08:13:39;;;;;;;11.95;2.55;;;17.70;61.80;;;;;;5025032;28;20053;-75
2021/10/16 08:16:06;;;;;;;9.77;2.53;;;17.80;61.20;;;;;;5021668;28;20033;-71
2021/10/16 08:18:33;;;;;;;10.82;2.78;;;17.80;62.20;;;;;;5022839;28;20035;-76
2021/10/16 08:21:00;;;;;;;12.90;3.05;;;17.60;62.80;;;;;;5027429;28;20506;-86
2021/10/16 08:23:26;;;;;;;9.00;3.08;;;17.50;62.90;;;;;;5023902;28;20021;-73
2021/10/16 08:25:53;;;;;;;10.98;3.92;;;17.60;63.90;;;;;;5022866;28;20025;-82
2021/10/16 08:28:20;;;;;;;6.47;1.95;;;17.70;63.20;;;;;;5023693;28;20034;-78
2021/10/16 08:30:50;;;;;;;10.05;2.30;;;17.80;60.20;;;;;;5017713;28;20477;-74
2021/10/16 08:33:22;;;;;;;10.95;2.15;;;17.90;60.40;;;;;;5023837;28;21063;-75
2021/10/16 08:35:48;;;;;;;11.23;1.98;;;18.00;60.20;;;;;;5021065;28;20504;-75
2021/10/16 08:38:16;;;;;;;10.82;2.90;;;18.20;58.80;;;;;;5025078;28;20053;-70
2021/10/16 08:40:43;;;;;;;10.35;1.95;;;18.20;58.80;;;;;;5015264;28;20466;-71
2021/10/16 08:43:10;;;;;;;13.82;2.63;;;18.30;59.00;;;;;;5021079;28;20048;-77
2021/10/16 08:45:37;;;;;;;8.88;2.25;;;18.30;59.50;;;;;;5021822;28;20045;-79
2021/10/16 08:48:07;;;;;;;11.82;2.80;;;18.40;60.00;;;;;;5022322;28;20064;-81
2021/10/16 08:50:35;;;;;;;13.60;3.97;;;18.40;60.60;;;;;;5019935;28;20493;-74
2021/10/16 08:53:01;;;;;;;11.73;3.33;;;18.50;60.60;;;;;;5021213;28;20097;-77
2021/10/16 08:55:28;;;;;;;8.23;3.28;;;18.50;60.00;;;;;;5020515;28;20029;-78
2021/10/16 08:57:56;;;;;;;8.50;2.25;;;18.50;61.20;;;;;;5009745;28;20024;-76
2021/10/16 09:00:55;;;;;;;12.95;3.33;;;18.50;60.70;;;;;;5023417;28;20025;-74
2021/10/16 09:03:29;;;;;;;12.00;3.10;;;18.40;61.00;;;;;;5026374;28;20063;-79
2021/10/16 09:06:01;;;;;;;9.13;2.47;;;18.30;60.80;;;;;;5018495;28;20042;-76
2021/10/16 09:08:52;;;;;;;15.25;2.70;;;18.20;60.20;;;;;;5025615;28;20017;-81
2021/10/16 09:11:47;;;;;;;11.30;3.38;;;18.00;61.00;;;;;;5021724;28;20025;-70
2021/10/16 09:14:19;;;;;;;9.60;3.92;;;18.00;60.00;;;;;;5023770;28;20100;-70
2021/10/16 09:16:48;;;;;;;7.47;2.17;;;17.90;60.50;;;;;;5025466;28;20049;-71
2021/10/16 09:19:24;;;;;;;7.47;2.50;;;17.80;61.60;;;;;;5027368;28;20049;-73
2021/10/16 09:22:06;;;;;;;8.70;3.03;;;17.70;62.20;;;;;;5029711;28;20042;-73
2021/10/16 09:24:40;;;;;;;10.38;2.50;;;17.70;61.80;;;;;;5026237;28;20496;-70
2021/10/16 09:27:08;;;;;;;10.27;2.70;;;17.70;62.90;;;;;;5025968;28;20121;-73
2021/10/16 09:29:38;;;;;;;7.75;1.92;;;17.60;65.30;;;;;;5019972;28;20021;-75
2021/10/16 09:32:13;;;;;;;10.50;3.17;;;17.50;66.90;;;;;;5030718;28;20037;-69
2021/10/16 09:34:49;;;;;;;8.93;2.30;;;17.50;67.30;;;;;;4986235;28;20045;-68
2021/10/16 09:37:21;;;;;;;12.15;2.35;;;17.40;64.80;;;;;;4985907;28;20030;-77
2021/10/16 09:39:50;;;;;;;10.00;3.25;;;17.30;65.90;;;;;;4987297;28;20450;-75
2021/10/16 09:42:42;;;;;;;12.00;4.95;;;17.30;66.10;;;;;;4988471;28;20118;-71
2021/10/16 09:45:14;;;;;;;9.60;2.85;;;17.40;67.40;;;;;;4985180;28;20034;-69
2021/10/16 09:47:57;;;;;;;9.90;2.15;;;17.40;67.30;;;;;;4986892;28;20363;-85
2021/10/16 09:50:24;;;;;;;11.45;3.13;;;17.30;67.70;;;;;;4987634;28;20018;-73
2021/10/16 09:52:52;;;;;;;12.63;2.72;;;17.30;69.10;;;;;;4986892;28;20042;-74
2021/10/16 09:55:20;;;;;;;10.63;2.38;;;17.30;70.30;;;;;;4981218;28;20575;-77
2021/10/16 09:57:48;;;;;;;10.93;2.15;;;17.30;68.90;;;;;;4985494;28;20457;-74
2021/10/16 10:00:15;;;;;;;10.75;3.97;;;17.40;68.80;;;;;;4991601;28;20045;-71
2021/10/16 10:02:50;;;;;;;11.07;2.35;;;17.40;66.50;;;;;;4979520;28;20030;-74
2021/10/16 10:05:21;;;;;;;8.35;2.20;;;17.60;65.90;;;;;;4978795;28;20061;-73
2021/10/16 10:07:49;;;;;;;11.65;2.50;;;17.70;65.50;;;;;;4978876;28;20490;-72
2021/10/16 10:10:16;;;;;;;20.02;10.45;;;17.80;65.40;;;;;;4982986;28;20027;-69
2021/10/16 10:12:44;;;;;;;6.60;2.45;;;17.90;65.00;;;;;;4979622;28;20386;-82
2021/10/16 10:15:20;;;;;;;6.95;2.50;;;18.00;65.10;;;;;;4979728;28;20023;-73
2021/10/16 10:17:48;;;;;;;15.57;2.65;;;18.20;65.00;;;;;;4983150;28;20031;-76
2021/10/16 10:20:15;;;;;;;10.48;2.10;;;18.30;64.90;;;;;;4979471;28;20019;-78
2021/10/16 10:22:44;;;;;;;12.70;3.08;;;18.50;64.70;;;;;;4979173;28;20018;-75
2021/10/16 10:25:23;;;;;;;12.68;3.08;;;18.70;64.20;;;;;;4982891;28;20035;-78
2021/10/16 10:27:53;;;;;;;13.52;3.60;;;19.00;63.30;;;;;;4989400;28;20056;-77
2021/10/16 10:30:35;;;;;;;10.00;2.30;;;19.10;62.30;;;;;;4991139;28;20019;-76
2021/10/16 10:33:19;;;;;;;7.72;2.88;;;19.30;61.60;;;;;;5003300;28;20520;-77
2021/10/16 10:36:04;;;;;;;9.50;3.13;;;19.30;60.90;;;;;;5021537;28;20037;-79
2021/10/16 10:38:33;;;;;;;18.40;5.15;;;19.20;60.50;;;;;;5026844;28;20040;-74
2021/10/16 10:41:25;;;;;;;14.43;3.13;;;19.00;64.10;;;;;;5019228;28;20028;-73
2021/10/16 10:43:54;;;;;;;12.77;3.13;;;18.60;69.30;;;;;;5027604;28;20021;-78
2021/10/16 10:46:28;;;;;;;18.17;8.38;;;18.30;70.20;;;;;;5027560;28;20053;-75
2021/10/16 10:49:10;;;;;;;9.47;2.07;;;18.10;68.90;;;;;;5021448;28;20124;-75
2021/10/16 10:51:38;;;;;;;11.85;3.17;;;17.90;70.00;;;;;;5027009;28;20104;-75
2021/10/16 10:54:16;;;;;;;10.80;2.38;;;18.00;70.20;;;;;;5020689;28;20025;-77
2021/10/16 10:56:47;;;;;;;10.25;2.22;;;18.10;69.80;;;;;;5021684;28;20019;-72
2021/10/16 10:59:16;;;;;;;12.57;2.20;;;18.40;66.80;;;;;;5022748;28;20018;-73
2021/10/16 11:01:54;;;;;;;8.75;2.10;;;18.60;63.50;;;;;;5026023;28;20120;-75
2021/10/16 11:05:02;;;;;;;6.40;1.50;;;18.80;61.00;;;;;;5023453;28;20063;-72
2021/10/16 11:07:47;;;;;;;10.55;2.47;;;19.00;61.30;;;;;;5021239;28;20504;-71
2021/10/16 11:10:15;;;;;;;9.07;2.33;;;19.10;59.90;;;;;;5023062;28;20029;-73
2021/10/16 11:12:44;;;;;;;7.75;2.97;;;19.20;58.50;;;;;;5027409;28;20030;-75
2021/10/16 11:15:12;;;;;;;6.13;1.50;;;19.10;58.10;;;;;;5024639;28;20010;-78
2021/10/16 11:17:45;;;;;;;7.60;2.08;;;18.90;63.10;;;;;;5027400;28;20124;-75
2021/10/16 11:20:19;;;;;;;6.85;1.73;;;18.60;66.50;;;;;;5026416;28;20049;-80
2021/10/16 11:22:54;;;;;;;6.10;2.10;;;18.40;68.00;;;;;;5023810;28;20026;-78
2021/10/16 11:25:29;;;;;;;52.35;46.35;;;18.30;71.80;;;;;;5023330;28;20026;-72
2021/10/16 11:28:14;;;;;;;25.25;19.05;;;18.20;70.00;;;;;;5016811;28;20030;-73
2021/10/16 11:30:43;;;;;;;8.15;2.30;;;18.10;71.40;;;;;;5003214;28;20388;-72
2021/10/16 11:33:18;;;;;;;11.20;2.88;;;18.00;73.00;;;;;;5006503;28;20409;-71
2021/10/16 11:35:47;;;;;;;12.48;2.33;;;17.90;72.30;;;;;;5023636;28;20030;-72
2021/10/16 11:38:16;;;;;;;11.93;3.65;;;17.90;75.40;;;;;;5022239;28;20489;-74
2021/10/16 11:40:43;;;;;;;10.57;3.15;;;17.90;76.00;;;;;;5023428;28;20021;-76
2021/10/16 11:43:18;;;;;;;18.75;3.72;;;17.90;74.90;;;;;;5021218;28;20021;-72
2021/10/16 11:45:47;;;;;;;11.25;3.47;;;18.00;73.70;;;;;;5026606;28;20025;-72
2021/10/16 11:48:15;;;;;;;5.47;2.17;;;18.10;73.00;;;;;;5018624;28;20096;-76
2021/10/16 11:50:50;;;;;;;12.25;2.28;;;18.20;69.20;;;;;;5019575;28;20045;-75
2021/10/16 11:53:29;;;;;;;9.90;2.35;;;18.40;70.40;;;;;;5022315;28;20030;-77
2021/10/16 11:55:58;;;;;;;12.77;3.58;;;18.50;69.80;;;;;;5026895;28;20333;-74
2021/10/16 11:58:27;;;;;;;11.00;2.10;;;18.50;68.50;;;;;;5023778;28;20014;-74
2021/10/16 12:00:56;;;;;;;12.38;2.72;;;18.50;70.40;;;;;;5024237;28;20022;-75
2021/10/16 12:03:31;;;;;;;13.40;3.47;;;18.40;71.80;;;;;;5022044;28;20394;-73
2021/10/16 12:06:03;;;;;;;20.15;4.80;;;18.20;73.70;;;;;;5004964;28;20044;-73
2021/10/16 12:08:32;;;;;;;14.02;4.00;;;18.10;75.30;;;;;;5025088;28;20018;-77
2021/10/16 12:11:04;;;;;;;18.95;4.32;;;18.10;75.80;;;;;;5022114;28;20033;-74
2021/10/16 12:13:44;;;;;;;17.52;3.60;;;18.10;76.60;;;;;;5023730;28;20103;-73
2021/10/16 12:16:12;;;;;;;8.45;3.28;;;18.30;76.80;;;;;;5013210;28;20033;-75
2021/10/16 12:18:51;;;;;;;11.52;2.95;;;18.40;74.30;;;;;;5023203;28;20108;-76
2021/10/16 12:21:29;;;;;;;12.63;3.72;;;18.60;73.40;;;;;;5021047;28;20052;-72
2021/10/16 12:23:57;;;;;;;9.48;3.30;;;18.80;72.60;;;;;;5024509;28;20025;-74
2021/10/16 12:26:32;;;;;;;12.77;3.63;;;19.10;71.70;;;;;;5025011;28;20033;-77
2021/10/16 12:29:01;;;;;;;15.23;3.33;;;19.30;70.40;;;;;;5020103;28;20565;-72
2021/10/16 12:31:28;;;;;;;9.05;3.13;;;19.40;68.60;;;;;;5024073;28;20476;-74
2021/10/16 12:33:56;;;;;;;15.30;3.05;;;19.60;66.70;;;;;;5021041;28;20046;-73
2021/10/16 12:36:37;;;;;;;14.50;3.35;;;19.60;64.50;;;;;;5022058;28;20021;-72
2021/10/16 12:39:08;;;;;;;8.55;3.75;;;19.60;64.10;;;;;;5024537;28;20048;-72
2021/10/16 12:41:38;;;;;;;8.25;2.55;;;19.50;63.80;;;;;;5007269;28;20430;-74
2021/10/16 12:44:24;;;;;;;15.93;2.85;;;19.40;63.90;;;;;;5023831;28;20106;-72
2021/10/16 12:47:04;;;;;;;14.63;4.75;;;19.30;66.80;;;;;;5023340;28;20025;-72
2021/10/16 12:49:41;;;;;;;18.65;4.10;;;19.30;68.80;;;;;;5022429;28;20168;-73
2021/10/16 12:52:29;;;;;;;10.07;2.45;;;19.20;70.20;;;;;;5021034;28;20524;-82